sensor_id;sensor_type;location;lat;lon;timestamp;temperature;humidity
22108;DHT22;11220;48.812;9.128;2024-03-06T00:00:34;18.00;74.80
22108;DHT22;11220;48.812;9.128;2024-03-06T00:03:00;18.00;74.80
22108;DHT22;11220;48.812;9.128;2024-03-06T00:05:25;18.00;74.90
22108;DHT22;11220;48.812;9.128;2024-03-06T00:07:51;18.00;74.80
22108;DHT22;11220;48.812;9.128;2024-03-06T00:10:16;18.00;74.80
22108;DHT22;11220;48.812;9.128;2024-03-06T00:12:42;18.00;74.80
22108;DHT22;11220;48.812;9.128;2024-03-06T00:15:08;18.00;74.80
22108;DHT22;11220;48.812;9.128;2024-03-06T00:17:33;17.90;74.80
22108;DHT22;11220;48.812;9.128;2024-03-06T00:19:59;17.90;74.80
22108;DHT22;11220;48.812;9.128;2024-03-06T00:22:24;18.00;74.80
22108;DHT22;11220;48.812;9.128;2024-03-06T00:24:51;17.90;74.70
22108;DHT22;11220;48.812;9.128;2024-03-06T00:27:17;17.90;74.70
22108;DHT22;11220;48.812;9.128;2024-03-06T00:29:42;17.90;74.80
22108;DHT22;11220;48.812;9.128;2024-03-06T00:32:08;17.90;74.80
22108;DHT22;11220;48.812;9.128;2024-03-06T00:34:33;17.90;74.80
22108;DHT22;11220;48.812;9.128;2024-03-06T00:36:59;17.90;74.70
22108;DHT22;11220;48.812;9.128;2024-03-06T00:39:24;17.90;74.80
22108;DHT22;11220;48.812;9.128;2024-03-06T00:41:50;17.90;74.80
22108;DHT22;11220;48.812;9.128;2024-03-06T00:44:15;17.90;74.80
22108;DHT22;11220;48.812;9.128;2024-03-06T00:46:42;17.90;74.80
22108;DHT22;11220;48.812;9.128;2024-03-06T00:49:08;17.90;74.80
22108;DHT22;11220;48.812;9.128;2024-03-06T00:51:33;17.90;74.80
22108;DHT22;11220;48.812;9.128;2024-03-06T00:54:02;17.90;74.80
22108;DHT22;11220;48.812;9.128;2024-03-06T00:56:27;17.90;74.80
22108;DHT22;11220;48.812;9.128;2024-03-06T00:58:53;17.90;74.80
22108;DHT22;11220;48.812;9.128;2024-03-06T01:01:18;17.90;74.80
22108;DHT22;11220;48.812;9.128;2024-03-06T01:03:44;17.90;74.80
22108;DHT22;11220;48.812;9.128;2024-03-06T01:06:10;17.90;74.80
22108;DHT22;11220;48.812;9.128;2024-03-06T01:08:36;17.90;74.80
22108;DHT22;11220;48.812;9.128;2024-03-06T01:11:01;17.80;74.70
22108;DHT22;11220;48.812;9.128;2024-03-06T01:13:27;17.90;74.80
22108;DHT22;11220;48.812;9.128;2024-03-06T01:15:52;17.90;74.80
22108;DHT22;11220;48.812;9.128;2024-03-06T01:18:18;17.80;74.80
22108;DHT22;11220;48.812;9.128;2024-03-06T01:20:43;17.80;74.80
22108;DHT22;11220;48.812;9.128;2024-03-06T01:23:09;17.80;74.80
22108;DHT22;11220;48.812;9.128;2024-03-06T01:25:34;17.80;74.80
22108;DHT22;11220;48.812;9.128;2024-03-06T01:28:00;17.80;74.80
22108;DHT22;11220;48.812;9.128;2024-03-06T01:30:26;17.80;74.80
22108;DHT22;11220;48.812;9.128;2024-03-06T01:32:51;17.80;74.80
22108;DHT22;11220;48.812;9.128;2024-03-06T01:35:17;17.80;74.80
22108;DHT22;11220;48.812;9.128;2024-03-06T01:37:43;17.80;74.90
22108;DHT22;11220;48.812;9.128;2024-03-06T01:40:09;17.80;74.90
22108;DHT22;11220;48.812;9.128;2024-03-06T01:42:35;17.80;74.90
22108;DHT22;11220;48.812;9.128;2024-03-06T01:45:02;17.80;74.90
22108;DHT22;11220;48.812;9.128;2024-03-06T01:47:27;17.80;74.90
22108;DHT22;11220;48.812;9.128;2024-03-06T01:49:53;17.80;74.90
22108;DHT22;11220;48.812;9.128;2024-03-06T01:52:20;17.80;74.90
22108;DHT22;11220;48.812;9.128;2024-03-06T01:54:48;17.80;74.90
22108;DHT22;11220;48.812;9.128;2024-03-06T01:57:15;17.80;74.90
22108;DHT22;11220;48.812;9.128;2024-03-06T01:59:42;17.80;74.90
22108;DHT22;11220;48.812;9.128;2024-03-06T02:02:08;17.70;74.80
22108;DHT22;11220;48.812;9.128;2024-03-06T02:04:39;17.70;74.80
22108;DHT22;11220;48.812;9.128;2024-03-06T02:07:09;17.70;74.80
22108;DHT22;11220;48.812;9.128;2024-03-06T02:09:38;17.70;74.80
22108;DHT22;11220;48.812;9.128;2024-03-06T02:12:05;17.70;74.90
22108;DHT22;11220;48.812;9.128;2024-03-06T02:14:31;17.70;74.90
22108;DHT22;11220;48.812;9.128;2024-03-06T02:16:56;17.70;74.80
22108;DHT22;11220;48.812;9.128;2024-03-06T02:19:22;17.70;74.90
22108;DHT22;11220;48.812;9.128;2024-03-06T02:21:48;17.70;74.80
22108;DHT22;11220;48.812;9.128;2024-03-06T02:24:13;17.70;74.80
22108;DHT22;11220;48.812;9.128;2024-03-06T02:26:39;17.70;74.80
22108;DHT22;11220;48.812;9.128;2024-03-06T02:29:06;17.70;74.90
22108;DHT22;11220;48.812;9.128;2024-03-06T02:31:32;17.70;74.90
22108;DHT22;11220;48.812;9.128;2024-03-06T02:33:58;17.70;74.90
22108;DHT22;11220;48.812;9.128;2024-03-06T02:36:24;17.70;74.90
22108;DHT22;11220;48.812;9.128;2024-03-06T02:38:50;17.70;74.90
22108;DHT22;11220;48.812;9.128;2024-03-06T02:41:15;17.70;74.90
22108;DHT22;11220;48.812;9.128;2024-03-06T02:43:41;17.70;74.90
22108;DHT22;11220;48.812;9.128;2024-03-06T02:46:08;17.70;74.90
22108;DHT22;11220;48.812;9.128;2024-03-06T02:48:33;17.70;74.90
22108;DHT22;11220;48.812;9.128;2024-03-06T02:50:59;17.70;75.00
22108;DHT22;11220;48.812;9.128;2024-03-06T02:53:25;17.70;75.00
22108;DHT22;11220;48.812;9.128;2024-03-06T02:55:51;17.70;75.00
22108;DHT22;11220;48.812;9.128;2024-03-06T02:58:16;17.70;75.00
22108;DHT22;11220;48.812;9.128;2024-03-06T03:00:42;17.70;75.00
22108;DHT22;11220;48.812;9.128;2024-03-06T03:03:08;17.70;74.90
22108;DHT22;11220;48.812;9.128;2024-03-06T03:05:33;17.60;74.90
22108;DHT22;11220;48.812;9.128;2024-03-06T03:07:59;17.70;75.00
22108;DHT22;11220;48.812;9.128;2024-03-06T03:10:25;17.60;74.90
22108;DHT22;11220;48.812;9.128;2024-03-06T03:12:51;17.60;75.00
22108;DHT22;11220;48.812;9.128;2024-03-06T03:15:16;17.60;74.90
22108;DHT22;11220;48.812;9.128;2024-03-06T03:17:42;17.60;75.00
22108;DHT22;11220;48.812;9.128;2024-03-06T03:20:08;17.60;75.00
22108;DHT22;11220;48.812;9.128;2024-03-06T03:22:42;17.60;74.90
22108;DHT22;11220;48.812;9.128;2024-03-06T03:25:12;17.60;75.00
22108;DHT22;11220;48.812;9.128;2024-03-06T03:27:39;17.60;75.00
22108;DHT22;11220;48.812;9.128;2024-03-06T03:30:11;17.60;75.00
22108;DHT22;11220;48.812;9.128;2024-03-06T03:32:37;17.60;75.00
22108;DHT22;11220;48.812;9.128;2024-03-06T03:35:07;17.60;75.00
22108;DHT22;11220;48.812;9.128;2024-03-06T03:37:33;17.60;75.00
22108;DHT22;11220;48.812;9.128;2024-03-06T03:39:59;17.60;75.00
22108;DHT22;11220;48.812;9.128;2024-03-06T03:42:24;17.60;75.00
22108;DHT22;11220;48.812;9.128;2024-03-06T03:44:50;17.60;75.00
22108;DHT22;11220;48.812;9.128;2024-03-06T03:47:15;17.60;75.00
22108;DHT22;11220;48.812;9.128;2024-03-06T03:49:41;17.60;75.10
22108;DHT22;11220;48.812;9.128;2024-03-06T03:52:06;17.60;75.10
22108;DHT22;11220;48.812;9.128;2024-03-06T03:54:32;17.60;75.00
22108;DHT22;11220;48.812;9.128;2024-03-06T03:56:57;17.60;75.00
22108;DHT22;11220;48.812;9.128;2024-03-06T03:59:24;17.60;75.00
22108;DHT22;11220;48.812;9.128;2024-03-06T04:01:50;17.60;75.00
22108;DHT22;11220;48.812;9.128;2024-03-06T04:04:15;17.60;75.10
22108;DHT22;11220;48.812;9.128;2024-03-06T04:06:41;17.50;75.00
22108;DHT22;11220;48.812;9.128;2024-03-06T04:09:07;17.60;75.00
22108;DHT22;11220;48.812;9.128;2024-03-06T04:11:38;17.60;75.00
22108;DHT22;11220;48.812;9.128;2024-03-06T04:14:06;17.50;75.00
22108;DHT22;11220;48.812;9.128;2024-03-06T04:16:33;17.50;75.00
22108;DHT22;11220;48.812;9.128;2024-03-06T04:18:59;17.50;75.00
22108;DHT22;11220;48.812;9.128;2024-03-06T04:21:24;17.50;75.00
22108;DHT22;11220;48.812;9.128;2024-03-06T04:23:50;17.50;75.10
22108;DHT22;11220;48.812;9.128;2024-03-06T04:26:15;17.50;75.00
22108;DHT22;11220;48.812;9.128;2024-03-06T04:28:43;17.50;75.00
22108;DHT22;11220;48.812;9.128;2024-03-06T04:31:09;17.50;75.10
22108;DHT22;11220;48.812;9.128;2024-03-06T04:33:34;17.50;75.10
22108;DHT22;11220;48.812;9.128;2024-03-06T04:36:03;17.50;75.10
22108;DHT22;11220;48.812;9.128;2024-03-06T04:38:32;17.50;75.00
22108;DHT22;11220;48.812;9.128;2024-03-06T04:40:58;17.50;75.10
22108;DHT22;11220;48.812;9.128;2024-03-06T04:43:23;17.50;75.10
22108;DHT22;11220;48.812;9.128;2024-03-06T04:45:49;17.50;75.00
22108;DHT22;11220;48.812;9.128;2024-03-06T04:48:15;17.50;75.10
22108;DHT22;11220;48.812;9.128;2024-03-06T04:50:40;17.50;75.10
22108;DHT22;11220;48.812;9.128;2024-03-06T04:53:06;17.50;75.10
22108;DHT22;11220;48.812;9.128;2024-03-06T04:55:32;17.50;75.10
22108;DHT22;11220;48.812;9.128;2024-03-06T04:57:57;17.50;75.10
22108;DHT22;11220;48.812;9.128;2024-03-06T05:00:23;17.40;75.00
22108;DHT22;11220;48.812;9.128;2024-03-06T05:02:49;17.50;75.10
22108;DHT22;11220;48.812;9.128;2024-03-06T05:05:14;17.50;75.10
22108;DHT22;11220;48.812;9.128;2024-03-06T05:07:40;17.50;75.10
22108;DHT22;11220;48.812;9.128;2024-03-06T05:10:06;17.50;75.20
22108;DHT22;11220;48.812;9.128;2024-03-06T05:12:33;17.40;75.20
22108;DHT22;11220;48.812;9.128;2024-03-06T05:15:00;17.50;75.20
22108;DHT22;11220;48.812;9.128;2024-03-06T05:17:25;17.40;75.20
22108;DHT22;11220;48.812;9.128;2024-03-06T05:19:51;17.40;75.20
22108;DHT22;11220;48.812;9.128;2024-03-06T05:22:17;17.50;75.20
22108;DHT22;11220;48.812;9.128;2024-03-06T05:24:43;17.50;75.20
22108;DHT22;11220;48.812;9.128;2024-03-06T05:27:09;17.40;75.10
22108;DHT22;11220;48.812;9.128;2024-03-06T05:29:36;17.40;75.20
22108;DHT22;11220;48.812;9.128;2024-03-06T05:32:02;17.40;75.20
22108;DHT22;11220;48.812;9.128;2024-03-06T05:34:29;17.40;75.20
22108;DHT22;11220;48.812;9.128;2024-03-06T05:36:55;17.40;75.20
22108;DHT22;11220;48.812;9.128;2024-03-06T05:39:20;17.40;75.10
22108;DHT22;11220;48.812;9.128;2024-03-06T05:41:46;17.40;75.10
22108;DHT22;11220;48.812;9.128;2024-03-06T05:44:11;17.40;75.10
22108;DHT22;11220;48.812;9.128;2024-03-06T05:46:37;17.50;75.10
22108;DHT22;11220;48.812;9.128;2024-03-06T05:49:03;17.40;75.00
22108;DHT22;11220;48.812;9.128;2024-03-06T05:51:29;17.40;75.00
22108;DHT22;11220;48.812;9.128;2024-03-06T05:53:55;17.40;74.90
22108;DHT22;11220;48.812;9.128;2024-03-06T05:56:21;17.40;74.90
22108;DHT22;11220;48.812;9.128;2024-03-06T05:58:46;17.50;74.90
22108;DHT22;11220;48.812;9.128;2024-03-06T06:01:13;17.50;74.90
22108;DHT22;11220;48.812;9.128;2024-03-06T06:03:44;17.50;74.80
22108;DHT22;11220;48.812;9.128;2024-03-06T06:06:10;17.50;74.80
22108;DHT22;11220;48.812;9.128;2024-03-06T06:08:35;17.60;74.80
22108;DHT22;11220;48.812;9.128;2024-03-06T06:11:02;17.50;74.70
22108;DHT22;11220;48.812;9.128;2024-03-06T06:13:28;17.60;74.70
22108;DHT22;11220;48.812;9.128;2024-03-06T06:15:54;17.60;74.80
22108;DHT22;11220;48.812;9.128;2024-03-06T06:18:20;17.70;74.80
22108;DHT22;11220;48.812;9.128;2024-03-06T06:20:45;17.70;74.80
22108;DHT22;11220;48.812;9.128;2024-03-06T06:23:11;17.70;74.70
22108;DHT22;11220;48.812;9.128;2024-03-06T06:25:36;17.70;74.70
22108;DHT22;11220;48.812;9.128;2024-03-06T06:28:02;17.80;74.70
22108;DHT22;11220;48.812;9.128;2024-03-06T06:30:28;17.80;74.70
22108;DHT22;11220;48.812;9.128;2024-03-06T06:32:54;17.80;74.60
22108;DHT22;11220;48.812;9.128;2024-03-06T06:35:19;17.80;74.60
22108;DHT22;11220;48.812;9.128;2024-03-06T06:37:45;17.90;74.50
22108;DHT22;11220;48.812;9.128;2024-03-06T06:40:11;17.90;74.40
22108;DHT22;11220;48.812;9.128;2024-03-06T06:42:43;17.90;74.40
22108;DHT22;11220;48.812;9.128;2024-03-06T06:45:09;18.00;74.30
22108;DHT22;11220;48.812;9.128;2024-03-06T06:47:35;18.10;74.20
22108;DHT22;11220;48.812;9.128;2024-03-06T06:50:00;18.10;74.20
22108;DHT22;11220;48.812;9.128;2024-03-06T06:52:30;18.10;74.10
22108;DHT22;11220;48.812;9.128;2024-03-06T06:54:58;18.10;74.10
22108;DHT22;11220;48.812;9.128;2024-03-06T06:57:23;18.10;74.00
22108;DHT22;11220;48.812;9.128;2024-03-06T06:59:49;18.10;74.10
22108;DHT22;11220;48.812;9.128;2024-03-06T07:02:15;18.20;74.00
22108;DHT22;11220;48.812;9.128;2024-03-06T07:04:40;18.20;74.00
22108;DHT22;11220;48.812;9.128;2024-03-06T07:07:06;18.20;74.10
22108;DHT22;11220;48.812;9.128;2024-03-06T07:09:31;18.30;74.30
22108;DHT22;11220;48.812;9.128;2024-03-06T07:11:57;18.30;74.30
22108;DHT22;11220;48.812;9.128;2024-03-06T07:14:22;18.30;74.30
22108;DHT22;11220;48.812;9.128;2024-03-06T07:16:48;18.30;74.90
22108;DHT22;11220;48.812;9.128;2024-03-06T07:19:13;18.40;74.30
22108;DHT22;11220;48.812;9.128;2024-03-06T07:21:39;18.40;74.30
22108;DHT22;11220;48.812;9.128;2024-03-06T07:24:05;18.40;74.30
22108;DHT22;11220;48.812;9.128;2024-03-06T07:26:33;18.40;74.20
22108;DHT22;11220;48.812;9.128;2024-03-06T07:28:59;18.40;74.30
22108;DHT22;11220;48.812;9.128;2024-03-06T07:31:25;18.50;74.30
22108;DHT22;11220;48.812;9.128;2024-03-06T07:33:51;18.50;74.30
22108;DHT22;11220;48.812;9.128;2024-03-06T07:36:16;18.40;74.20
22108;DHT22;11220;48.812;9.128;2024-03-06T07:38:42;18.50;74.20
22108;DHT22;11220;48.812;9.128;2024-03-06T07:41:08;18.50;74.20
22108;DHT22;11220;48.812;9.128;2024-03-06T07:43:33;18.50;74.20
22108;DHT22;11220;48.812;9.128;2024-03-06T07:45:59;18.50;74.20
22108;DHT22;11220;48.812;9.128;2024-03-06T07:48:25;18.50;74.10
22108;DHT22;11220;48.812;9.128;2024-03-06T07:50:50;18.50;74.10
22108;DHT22;11220;48.812;9.128;2024-03-06T07:53:16;18.60;74.10
22108;DHT22;11220;48.812;9.128;2024-03-06T07:55:42;18.60;74.10
22108;DHT22;11220;48.812;9.128;2024-03-06T07:58:07;18.60;74.10
22108;DHT22;11220;48.812;9.128;2024-03-06T08:00:34;18.60;74.10
22108;DHT22;11220;48.812;9.128;2024-03-06T08:03:00;18.60;74.10
22108;DHT22;11220;48.812;9.128;2024-03-06T08:05:28;18.60;74.00
22108;DHT22;11220;48.812;9.128;2024-03-06T08:07:53;18.60;74.00
22108;DHT22;11220;48.812;9.128;2024-03-06T08:10:19;18.60;74.00
22108;DHT22;11220;48.812;9.128;2024-03-06T08:12:45;18.60;73.90
22108;DHT22;11220;48.812;9.128;2024-03-06T08:15:13;18.60;74.00
22108;DHT22;11220;48.812;9.128;2024-03-06T08:17:40;18.70;74.00
22108;DHT22;11220;48.812;9.128;2024-03-06T08:20:09;18.70;74.00
22108;DHT22;11220;48.812;9.128;2024-03-06T08:22:40;18.60;73.90
22108;DHT22;11220;48.812;9.128;2024-03-06T08:25:07;18.60;74.00
22108;DHT22;11220;48.812;9.128;2024-03-06T08:27:34;18.70;74.10
22108;DHT22;11220;48.812;9.128;2024-03-06T08:30:00;18.70;74.10
22108;DHT22;11220;48.812;9.128;2024-03-06T08:32:26;18.70;74.10
22108;DHT22;11220;48.812;9.128;2024-03-06T08:34:52;18.70;74.10
22108;DHT22;11220;48.812;9.128;2024-03-06T08:37:18;18.60;74.10
22108;DHT22;11220;48.812;9.128;2024-03-06T08:39:44;18.60;74.00
22108;DHT22;11220;48.812;9.128;2024-03-06T08:42:10;18.70;74.10
22108;DHT22;11220;48.812;9.128;2024-03-06T08:44:37;18.70;74.10
22108;DHT22;11220;48.812;9.128;2024-03-06T08:47:03;18.70;74.10
22108;DHT22;11220;48.812;9.128;2024-03-06T08:49:28;18.70;74.00
22108;DHT22;11220;48.812;9.128;2024-03-06T08:51:54;18.70;74.10
22108;DHT22;11220;48.812;9.128;2024-03-06T08:54:19;18.70;75.00
22108;DHT22;11220;48.812;9.128;2024-03-06T08:56:46;18.70;74.10
22108;DHT22;11220;48.812;9.128;2024-03-06T08:59:11;18.70;74.00
22108;DHT22;11220;48.812;9.128;2024-03-06T09:01:37;18.80;74.10
22108;DHT22;11220;48.812;9.128;2024-03-06T09:04:02;18.70;74.10
22108;DHT22;11220;48.812;9.128;2024-03-06T09:06:28;18.70;74.10
22108;DHT22;11220;48.812;9.128;2024-03-06T09:08:53;18.80;74.20
22108;DHT22;11220;48.812;9.128;2024-03-06T09:11:19;18.80;74.20
22108;DHT22;11220;48.812;9.128;2024-03-06T09:13:44;18.70;74.20
22108;DHT22;11220;48.812;9.128;2024-03-06T09:16:10;18.70;74.20
22108;DHT22;11220;48.812;9.128;2024-03-06T09:18:35;18.80;74.30
22108;DHT22;11220;48.812;9.128;2024-03-06T09:21:01;18.80;74.30
22108;DHT22;11220;48.812;9.128;2024-03-06T09:23:27;18.80;74.40
22108;DHT22;11220;48.812;9.128;2024-03-06T09:25:55;18.80;74.50
22108;DHT22;11220;48.812;9.128;2024-03-06T09:28:20;18.80;74.60
22108;DHT22;11220;48.812;9.128;2024-03-06T09:30:46;18.80;74.60
22108;DHT22;11220;48.812;9.128;2024-03-06T09:33:11;18.80;74.60
22108;DHT22;11220;48.812;9.128;2024-03-06T09:35:37;18.80;74.60
22108;DHT22;11220;48.812;9.128;2024-03-06T09:38:02;18.80;74.50
22108;DHT22;11220;48.812;9.128;2024-03-06T09:40:28;18.80;74.50
22108;DHT22;11220;48.812;9.128;2024-03-06T09:42:54;18.80;74.50
22108;DHT22;11220;48.812;9.128;2024-03-06T09:45:20;18.90;74.60
22108;DHT22;11220;48.812;9.128;2024-03-06T09:47:47;18.80;74.40
22108;DHT22;11220;48.812;9.128;2024-03-06T09:50:16;18.80;74.40
22108;DHT22;11220;48.812;9.128;2024-03-06T09:52:42;18.90;74.40
22108;DHT22;11220;48.812;9.128;2024-03-06T09:55:10;18.90;74.30
22108;DHT22;11220;48.812;9.128;2024-03-06T09:57:38;18.90;74.30
22108;DHT22;11220;48.812;9.128;2024-03-06T10:00:05;18.90;74.20
22108;DHT22;11220;48.812;9.128;2024-03-06T10:02:37;18.90;74.20
22108;DHT22;11220;48.812;9.128;2024-03-06T10:05:03;18.90;74.20
22108;DHT22;11220;48.812;9.128;2024-03-06T10:07:31;18.90;75.10
22108;DHT22;11220;48.812;9.128;2024-03-06T10:09:56;18.90;74.10
22108;DHT22;11220;48.812;9.128;2024-03-06T10:12:22;18.90;74.10
22108;DHT22;11220;48.812;9.128;2024-03-06T10:14:52;18.90;74.00
22108;DHT22;11220;48.812;9.128;2024-03-06T10:17:21;18.90;73.90
22108;DHT22;11220;48.812;9.128;2024-03-06T10:19:48;18.90;73.90
22108;DHT22;11220;48.812;9.128;2024-03-06T10:22:17;18.90;73.90
22108;DHT22;11220;48.812;9.128;2024-03-06T10:24:42;18.90;73.90
22108;DHT22;11220;48.812;9.128;2024-03-06T10:27:08;18.90;74.80
22108;DHT22;11220;48.812;9.128;2024-03-06T10:29:39;18.90;73.80
22108;DHT22;11220;48.812;9.128;2024-03-06T10:32:05;18.90;73.80
22108;DHT22;11220;48.812;9.128;2024-03-06T10:34:30;18.90;73.70
22108;DHT22;11220;48.812;9.128;2024-03-06T10:37:03;18.90;73.80
22108;DHT22;11220;48.812;9.128;2024-03-06T10:39:34;18.90;73.80
22108;DHT22;11220;48.812;9.128;2024-03-06T10:42:02;18.90;73.70
22108;DHT22;11220;48.812;9.128;2024-03-06T10:44:28;18.90;73.70
22108;DHT22;11220;48.812;9.128;2024-03-06T10:47:02;18.90;73.80
22108;DHT22;11220;48.812;9.128;2024-03-06T10:49:29;18.90;74.70
22108;DHT22;11220;48.812;9.128;2024-03-06T10:52:14;18.90;73.80
22108;DHT22;11220;48.812;9.128;2024-03-06T10:54:43;18.90;73.80
22108;DHT22;11220;48.812;9.128;2024-03-06T10:57:11;18.90;73.80
22108;DHT22;11220;48.812;9.128;2024-03-06T10:59:37;18.90;73.80
22108;DHT22;11220;48.812;9.128;2024-03-06T11:02:03;18.90;73.80
22108;DHT22;11220;48.812;9.128;2024-03-06T11:04:30;18.90;73.80
22108;DHT22;11220;48.812;9.128;2024-03-06T11:06:59;18.90;73.90
22108;DHT22;11220;48.812;9.128;2024-03-06T11:09:35;18.90;73.90
22108;DHT22;11220;48.812;9.128;2024-03-06T11:12:02;18.90;73.80
22108;DHT22;11220;48.812;9.128;2024-03-06T11:14:30;18.90;73.80
22108;DHT22;11220;48.812;9.128;2024-03-06T11:17:04;18.90;73.90
22108;DHT22;11220;48.812;9.128;2024-03-06T11:19:31;18.90;73.90
22108;DHT22;11220;48.812;9.128;2024-03-06T11:21:57;18.90;73.90
22108;DHT22;11220;48.812;9.128;2024-03-06T11:24:31;18.90;73.90
22108;DHT22;11220;48.812;9.128;2024-03-06T11:27:04;18.90;73.90
22108;DHT22;11220;48.812;9.128;2024-03-06T11:30:05;18.90;73.90
22108;DHT22;11220;48.812;9.128;2024-03-06T11:32:37;18.90;73.90
22108;DHT22;11220;48.812;9.128;2024-03-06T11:35:04;18.90;73.90
22108;DHT22;11220;48.812;9.128;2024-03-06T11:37:34;18.90;73.90
22108;DHT22;11220;48.812;9.128;2024-03-06T11:40:00;18.90;73.90
22108;DHT22;11220;48.812;9.128;2024-03-06T11:42:34;18.90;73.90
22108;DHT22;11220;48.812;9.128;2024-03-06T11:45:12;18.90;74.00
22108;DHT22;11220;48.812;9.128;2024-03-06T11:47:59;18.90;74.00
22108;DHT22;11220;48.812;9.128;2024-03-06T11:50:26;18.90;74.00
22108;DHT22;11220;48.812;9.128;2024-03-06T11:52:53;18.80;73.90
22108;DHT22;11220;48.812;9.128;2024-03-06T11:55:21;18.80;74.00
22108;DHT22;11220;48.812;9.128;2024-03-06T11:57:47;18.80;74.00
22108;DHT22;11220;48.812;9.128;2024-03-06T12:00:13;18.80;74.10
22108;DHT22;11220;48.812;9.128;2024-03-06T12:02:40;18.80;74.10
22108;DHT22;11220;48.812;9.128;2024-03-06T12:05:07;18.80;74.10
22108;DHT22;11220;48.812;9.128;2024-03-06T12:07:47;18.80;74.10
22108;DHT22;11220;48.812;9.128;2024-03-06T12:10:13;18.80;74.10
22108;DHT22;11220;48.812;9.128;2024-03-06T12:12:40;18.80;74.20
22108;DHT22;11220;48.812;9.128;2024-03-06T12:15:09;18.80;74.10
22108;DHT22;11220;48.812;9.128;2024-03-06T12:17:47;18.80;74.10
22108;DHT22;11220;48.812;9.128;2024-03-06T12:20:14;18.90;74.10
22108;DHT22;11220;48.812;9.128;2024-03-06T12:22:52;18.90;74.20
22108;DHT22;11220;48.812;9.128;2024-03-06T12:25:22;20.20;74.90
22108;DHT22;11220;48.812;9.128;2024-03-06T12:27:48;18.90;74.10
22108;DHT22;11220;48.812;9.128;2024-03-06T12:30:18;18.90;74.10
22108;DHT22;11220;48.812;9.128;2024-03-06T12:33:10;18.90;74.10
22108;DHT22;11220;48.812;9.128;2024-03-06T12:35:40;18.90;74.10
22108;DHT22;11220;48.812;9.128;2024-03-06T12:38:15;18.90;74.00
22108;DHT22;11220;48.812;9.128;2024-03-06T12:40:41;18.90;74.00
22108;DHT22;11220;48.812;9.128;2024-03-06T12:43:07;18.90;74.00
22108;DHT22;11220;48.812;9.128;2024-03-06T12:45:34;18.90;73.90
22108;DHT22;11220;48.812;9.128;2024-03-06T12:48:00;18.90;74.00
22108;DHT22;11220;48.812;9.128;2024-03-06T12:50:25;18.90;73.90
22108;DHT22;11220;48.812;9.128;2024-03-06T12:52:51;18.90;73.90
22108;DHT22;11220;48.812;9.128;2024-03-06T12:55:17;18.90;73.90
22108;DHT22;11220;48.812;9.128;2024-03-06T12:57:45;18.90;73.90
22108;DHT22;11220;48.812;9.128;2024-03-06T13:00:11;18.90;73.80
22108;DHT22;11220;48.812;9.128;2024-03-06T13:02:42;18.90;73.80
22108;DHT22;11220;48.812;9.128;2024-03-06T13:05:09;18.90;73.90
22108;DHT22;11220;48.812;9.128;2024-03-06T13:07:35;18.90;74.30
22108;DHT22;11220;48.812;9.128;2024-03-06T13:10:02;18.90;73.90
22108;DHT22;11220;48.812;9.128;2024-03-06T13:12:27;18.90;73.90
22108;DHT22;11220;48.812;9.128;2024-03-06T13:14:53;18.90;73.90
22108;DHT22;11220;48.812;9.128;2024-03-06T13:17:19;18.90;73.90
22108;DHT22;11220;48.812;9.128;2024-03-06T13:19:44;18.90;73.90
22108;DHT22;11220;48.812;9.128;2024-03-06T13:22:10;18.80;73.80
22108;DHT22;11220;48.812;9.128;2024-03-06T13:24:35;18.90;73.90
22108;DHT22;11220;48.812;9.128;2024-03-06T13:27:01;18.80;73.90
22108;DHT22;11220;48.812;9.128;2024-03-06T13:29:27;18.90;74.00
22108;DHT22;11220;48.812;9.128;2024-03-06T13:31:52;18.90;74.00
22108;DHT22;11220;48.812;9.128;2024-03-06T13:34:18;18.80;73.90
22108;DHT22;11220;48.812;9.128;2024-03-06T13:36:43;18.80;73.90
22108;DHT22;11220;48.812;9.128;2024-03-06T13:39:09;18.80;73.90
22108;DHT22;11220;48.812;9.128;2024-03-06T13:41:35;19.50;74.30
22108;DHT22;11220;48.812;9.128;2024-03-06T13:44:00;18.80;73.90
22108;DHT22;11220;48.812;9.128;2024-03-06T13:46:26;18.80;73.90
22108;DHT22;11220;48.812;9.128;2024-03-06T13:48:51;18.80;73.90
22108;DHT22;11220;48.812;9.128;2024-03-06T13:51:17;18.80;73.90
22108;DHT22;11220;48.812;9.128;2024-03-06T13:53:42;18.80;73.90
22108;DHT22;11220;48.812;9.128;2024-03-06T13:56:08;18.80;73.90
22108;DHT22;11220;48.812;9.128;2024-03-06T13:58:33;18.80;73.90
22108;DHT22;11220;48.812;9.128;2024-03-06T14:00:59;18.80;74.00
22108;DHT22;11220;48.812;9.128;2024-03-06T14:03:25;18.80;74.00
22108;DHT22;11220;48.812;9.128;2024-03-06T14:05:51;18.80;74.00
22108;DHT22;11220;48.812;9.128;2024-03-06T14:08:16;18.80;74.00
22108;DHT22;11220;48.812;9.128;2024-03-06T14:10:42;18.80;74.00
22108;DHT22;11220;48.812;9.128;2024-03-06T14:13:08;18.80;74.00
22108;DHT22;11220;48.812;9.128;2024-03-06T14:15:34;18.80;74.10
22108;DHT22;11220;48.812;9.128;2024-03-06T14:18:00;18.80;74.10
22108;DHT22;11220;48.812;9.128;2024-03-06T14:20:27;18.80;74.10
22108;DHT22;11220;48.812;9.128;2024-03-06T14:22:53;18.80;74.10
22108;DHT22;11220;48.812;9.128;2024-03-06T14:25:19;18.80;74.10
22108;DHT22;11220;48.812;9.128;2024-03-06T14:27:46;18.80;74.10
22108;DHT22;11220;48.812;9.128;2024-03-06T14:30:12;18.80;74.10
22108;DHT22;11220;48.812;9.128;2024-03-06T14:32:40;18.80;74.10
22108;DHT22;11220;48.812;9.128;2024-03-06T14:35:06;18.70;74.10
22108;DHT22;11220;48.812;9.128;2024-03-06T14:37:31;18.70;74.10
22108;DHT22;11220;48.812;9.128;2024-03-06T14:39:57;18.70;74.10
22108;DHT22;11220;48.812;9.128;2024-03-06T14:42:22;18.70;74.10
22108;DHT22;11220;48.812;9.128;2024-03-06T14:44:49;18.70;74.10
22108;DHT22;11220;48.812;9.128;2024-03-06T14:47:14;18.70;74.20
22108;DHT22;11220;48.812;9.128;2024-03-06T14:49:42;18.70;74.30
22108;DHT22;11220;48.812;9.128;2024-03-06T14:52:08;18.70;74.20
22108;DHT22;11220;48.812;9.128;2024-03-06T14:54:34;18.70;74.30
22108;DHT22;11220;48.812;9.128;2024-03-06T14:57:00;20.20;75.20
22108;DHT22;11220;48.812;9.128;2024-03-06T14:59:26;18.70;74.30
22108;DHT22;11220;48.812;9.128;2024-03-06T15:01:52;18.70;74.30
22108;DHT22;11220;48.812;9.128;2024-03-06T15:04:17;18.70;74.20
22108;DHT22;11220;48.812;9.128;2024-03-06T15:06:44;18.70;74.10
22108;DHT22;11220;48.812;9.128;2024-03-06T15:09:10;18.80;74.10
22108;DHT22;11220;48.812;9.128;2024-03-06T15:11:39;18.70;73.90
22108;DHT22;11220;48.812;9.128;2024-03-06T15:14:04;18.70;73.80
22108;DHT22;11220;48.812;9.128;2024-03-06T15:16:30;18.70;73.80
22108;DHT22;11220;48.812;9.128;2024-03-06T15:18:56;18.70;73.70
22108;DHT22;11220;48.812;9.128;2024-03-06T15:21:23;18.70;73.60
22108;DHT22;11220;48.812;9.128;2024-03-06T15:23:49;18.70;73.60
22108;DHT22;11220;48.812;9.128;2024-03-06T15:26:16;18.70;73.60